createdAt,value
2023-05-02T00:00:08.173Z,96190.81
2023-05-02T00:02:56.439Z,96187.43
2023-05-02T00:05:24.749Z,96187.42
2023-05-02T00:07:53.006Z,96186.27
2023-05-02T00:10:21.192Z,96185.33
2023-05-02T00:12:49.109Z,96184.17
2023-05-02T00:15:17.145Z,96184.16
2023-05-02T00:17:45.128Z,96179.36
2023-05-02T00:20:13.364Z,96179.92
2023-05-02T00:22:41.327Z,96178.73
2023-05-02T00:25:09.621Z,96180.38
2023-05-02T00:27:37.535Z,96179.98
2023-05-02T00:30:06.038Z,96179.83
2023-05-02T00:32:33.963Z,96176.12
2023-05-02T00:35:02.091Z,96176.84
2023-05-02T00:37:30.040Z,96176.47
2023-05-02T00:39:58.792Z,96176.67
2023-05-02T00:42:27.040Z,96176.66
2023-05-02T00:44:54.937Z,96176.23
2023-05-02T00:47:23.362Z,96181.48
2023-05-02T00:49:51.500Z,96182.52
2023-05-02T00:52:19.795Z,96184.85
2023-05-02T00:54:47.787Z,96183.13
2023-05-02T00:57:15.851Z,96181.77
2023-05-02T00:59:44.475Z,96182.45
2023-05-02T01:02:30.629Z,96181.73
2023-05-02T01:05:11.532Z,96182.70
2023-05-02T01:08:09.225Z,96183.11
2023-05-02T01:11:03.915Z,96184.30
2023-05-02T01:13:34.146Z,96183.42
2023-05-02T01:16:03.486Z,96186.23
2023-05-02T01:18:35.745Z,96184.13
2023-05-02T01:21:08.937Z,96184.77
2023-05-02T01:24:05.656Z,96190.45
2023-05-02T01:27:29.533Z,96188.90
2023-05-02T01:29:59.443Z,96189.46
2023-05-02T01:32:31.185Z,96190.19
2023-05-02T01:35:01.765Z,96191.48
2023-05-02T01:37:30.975Z,96188.44
2023-05-02T01:40:01.389Z,96190.36
2023-05-02T01:42:31.928Z,96188.16
2023-05-02T01:45:03.172Z,96187.79
2023-05-02T01:47:35.618Z,96186.11
2023-05-02T01:50:06.836Z,96185.17
2023-05-02T01:52:35.706Z,96184.05
2023-05-02T01:55:09.590Z,96188.09
2023-05-02T01:57:39.998Z,96186.13
2023-05-02T02:00:09.149Z,96187.55
2023-05-02T02:02:45.412Z,96184.42
2023-05-02T02:05:18.639Z,96185.61
2023-05-02T02:07:46.983Z,96189.42
2023-05-02T02:10:15.048Z,96186.19
2023-05-02T02:12:54.338Z,96187.05
2023-05-02T02:15:33.570Z,96185.49
2023-05-02T02:18:14.735Z,96188.17
2023-05-02T02:20:45.690Z,96183.05
2023-05-02T02:23:15.593Z,96186.63
2023-05-02T02:25:45.461Z,96187.78
2023-05-02T02:28:13.609Z,96189.21
2023-05-02T02:30:41.638Z,96192.28
2023-05-02T02:33:09.663Z,96189.62
2023-05-02T02:35:58.745Z,96186.98
2023-05-02T02:38:33.625Z,96191.36
2023-05-02T02:41:12.462Z,96192.66
2023-05-02T02:44:15.101Z,96189.52
2023-05-02T02:46:55.897Z,96193.54
2023-05-02T02:49:35.756Z,96186.98
2023-05-02T02:52:15.662Z,96190.08
2023-05-02T02:54:58.894Z,96192.83
2023-05-02T02:57:49.377Z,96194.98
2023-05-02T03:00:24.946Z,96197.48
2023-05-02T03:02:54.776Z,96193.85
2023-05-02T03:05:24.017Z,96198.75
2023-05-02T03:07:52.505Z,96196.33
2023-05-02T03:10:23.434Z,96198.14
2023-05-02T03:12:55.708Z,96198.98
2023-05-02T03:15:43.356Z,96198.51
2023-05-02T03:18:12.383Z,96202.29
2023-05-02T03:20:42.058Z,96203.88
2023-05-02T03:23:10.564Z,96204.41
2023-05-02T03:25:38.941Z,96203.12
2023-05-02T03:28:07.365Z,96203.97
2023-05-02T03:30:40.826Z,96201.23
2023-05-02T03:33:09.256Z,96202.86
2023-05-02T03:35:37.848Z,96200.56
2023-05-02T03:38:05.768Z,96205.75
2023-05-02T03:40:33.777Z,96205.35
2023-05-02T03:43:01.828Z,96206.11
2023-05-02T03:45:31.206Z,96208.45
2023-05-02T03:48:00.234Z,96207.80
2023-05-02T03:50:28.650Z,96211.58
2023-05-02T03:52:57.235Z,96213.31
2023-05-02T03:55:29.657Z,96211.86
2023-05-02T03:57:57.738Z,96212.29
2023-05-02T04:00:25.670Z,96210.58
2023-05-02T04:02:57.521Z,96205.42
2023-05-02T04:05:28.872Z,96205.36
2023-05-02T04:07:57.327Z,96202.66
2023-05-02T04:10:25.578Z,96204.71
2023-05-02T04:12:57.876Z,96204.70
2023-05-02T04:15:26.518Z,96203.90
2023-05-02T04:17:55.483Z,96204.92
2023-05-02T04:20:23.578Z,96208.61
2023-05-02T04:22:53.099Z,96207.02
2023-05-02T04:25:21.755Z,96210.59
2023-05-02T04:27:51.680Z,96209.15
2023-05-02T04:30:22.344Z,96212.05
2023-05-02T04:32:58.515Z,96210.91
2023-05-02T04:35:28.433Z,96213.09
2023-05-02T04:37:56.912Z,96211.40
2023-05-02T04:40:25.286Z,96211.88
2023-05-02T04:43:00.020Z,96213.42
2023-05-02T04:45:36.904Z,96212.25
2023-05-02T04:48:07.705Z,96215.15
2023-05-02T04:50:35.937Z,96210.74
2023-05-02T04:53:04.384Z,96213.99
2023-05-02T04:55:33.206Z,96213.90
2023-05-02T04:58:01.195Z,96218.65
2023-05-02T05:00:29.409Z,96216.79
2023-05-02T05:02:59.255Z,96216.92
2023-05-02T05:05:29.076Z,96219.58
2023-05-02T05:07:57.391Z,96220.86
2023-05-02T05:10:46.487Z,96215.39
2023-05-02T05:13:14.574Z,96213.49
2023-05-02T05:15:44.886Z,96215.83
2023-05-02T05:18:13.946Z,96206.02
2023-05-02T05:20:41.951Z,96203.87
2023-05-02T05:23:12.521Z,96203.96
2023-05-02T05:25:41.833Z,96203.79
2023-05-02T05:28:11.413Z,96200.48
2023-05-02T05:30:40.034Z,96197.36
2023-05-02T05:33:11.331Z,96196.84
2023-05-02T05:35:39.531Z,96196.77
2023-05-02T05:38:07.507Z,96196.55
2023-05-02T05:40:38.784Z,96199.56
2023-05-02T05:43:08.784Z,96194.36
2023-05-02T05:45:39.066Z,96196.67
2023-05-02T05:48:07.648Z,96202.25
2023-05-02T05:50:41.793Z,96203.96
2023-05-02T05:53:09.841Z,96208.77
2023-05-02T05:55:42.159Z,96212.01
2023-05-02T05:58:11.103Z,96214.17
2023-05-02T06:00:40.634Z,96210.70
2023-05-02T06:03:09.877Z,96211.32
2023-05-02T06:05:38.679Z,96216.11
2023-05-02T06:08:06.852Z,96216.67
2023-05-02T06:10:35.056Z,96218.05
2023-05-02T06:13:03.307Z,96222.04
2023-05-02T06:15:36.048Z,96223.88
2023-05-02T06:18:05.923Z,96229.45
2023-05-02T06:20:36.296Z,96226.48
2023-05-02T06:23:04.350Z,96232.61
2023-05-02T06:25:34.126Z,96234.48
2023-05-02T06:28:02.266Z,96235.20
2023-05-02T06:30:30.469Z,96237.34
2023-05-02T06:32:58.512Z,96237.51
2023-05-02T06:35:26.539Z,96236.44
2023-05-02T06:37:54.566Z,96234.41
2023-05-02T06:40:22.473Z,96231.76
2023-05-02T06:42:50.466Z,96232.70
2023-05-02T06:45:18.425Z,96231.02
2023-05-02T06:47:46.544Z,96233.38
2023-05-02T06:50:14.551Z,96236.52
2023-05-02T06:52:42.454Z,96240.52
2023-05-02T06:55:10.466Z,96241.06
2023-05-02T06:57:38.566Z,96242.83
2023-05-02T07:00:07.037Z,96241.05
2023-05-02T07:02:35.102Z,96241.83
2023-05-02T07:05:03.488Z,96242.66
2023-05-02T07:07:32.544Z,96246.73
2023-05-02T07:10:00.713Z,96249.50
2023-05-02T07:12:29.201Z,96251.20
2023-05-02T07:14:57.113Z,96250.24
2023-05-02T07:17:25.686Z,96252.51
2023-05-02T07:19:54.085Z,96256.82
2023-05-02T07:22:22.114Z,96258.02
2023-05-02T07:24:57.790Z,96254.25
2023-05-02T07:27:25.881Z,96260.33
2023-05-02T07:29:53.811Z,96259.48
2023-05-02T07:32:22.591Z,96258.08
2023-05-02T07:34:54.112Z,96265.47
2023-05-02T07:37:22.126Z,96266.62
2023-05-02T07:39:50.256Z,96271.68
2023-05-02T07:42:18.386Z,96273.30
2023-05-02T07:44:46.397Z,96274.42
2023-05-02T07:47:14.435Z,96276.16
2023-05-02T07:49:42.393Z,96278.08
2023-05-02T07:52:10.453Z,96278.16
2023-05-02T07:54:38.554Z,96282.33
2023-05-02T07:57:08.677Z,96280.14
2023-05-02T07:59:36.681Z,96278.48
2023-05-02T08:02:05.216Z,96277.64
2023-05-02T08:04:34.278Z,96276.45
2023-05-02T08:07:02.400Z,96278.16
2023-05-02T08:09:30.560Z,96281.59
2023-05-02T08:11:58.510Z,96280.48
2023-05-02T08:14:26.593Z,96276.15
2023-05-02T08:16:54.656Z,96275.33
2023-05-02T08:19:22.683Z,96267.04
2023-05-02T08:21:50.820Z,96269.53
2023-05-02T08:24:18.871Z,96264.98
2023-05-02T08:26:47.575Z,96268.08
2023-05-02T08:29:16.273Z,96276.35
2023-05-02T08:31:44.583Z,96277.10
2023-05-02T08:34:12.860Z,96276.89
2023-05-02T08:36:40.917Z,96279.97
2023-05-02T08:39:09.298Z,96277.61
2023-05-02T08:41:38.614Z,96275.60
2023-05-02T08:44:08.051Z,96281.79
2023-05-02T08:46:37.307Z,96286.61
2023-05-02T08:49:05.758Z,96283.70
2023-05-02T08:51:36.666Z,96279.70
2023-05-02T08:54:07.820Z,96278.09
2023-05-02T08:56:36.303Z,96278.23
2023-05-02T08:59:04.250Z,96279.27
2023-05-02T09:01:33.567Z,96276.31
2023-05-02T09:04:02.477Z,96277.46
2023-05-02T09:06:30.661Z,96276.48
2023-05-02T09:09:00.910Z,96276.04
2023-05-02T09:11:29.768Z,96276.06
2023-05-02T09:14:03.898Z,96278.13
2023-05-02T09:16:58.539Z,96272.32
2023-05-02T09:19:27.205Z,96273.79
2023-05-02T09:22:02.202Z,96272.23
2023-05-02T09:24:30.405Z,96271.91
2023-05-02T09:27:04.495Z,96272.84
2023-05-02T09:29:39.094Z,96271.02
2023-05-02T09:32:07.517Z,96273.70
2023-05-02T09:34:37.512Z,96274.95
2023-05-02T09:37:06.526Z,96280.32
2023-05-02T09:39:34.543Z,96281.34
2023-05-02T09:42:03.582Z,96281.99
2023-05-02T09:44:38.314Z,96282.63
2023-05-02T09:47:08.772Z,96283.92
2023-05-02T09:49:42.128Z,96282.69
2023-05-02T09:52:12.332Z,96288.48
2023-05-02T09:54:40.408Z,96285.37
2023-05-02T09:57:08.573Z,96283.04
2023-05-02T09:59:36.759Z,96287.35
2023-05-02T10:02:07.362Z,96285.77
2023-05-02T10:04:36.797Z,96289.90
2023-05-02T10:07:06.807Z,96289.33
2023-05-02T10:09:36.402Z,96293.98
2023-05-02T10:12:05.278Z,96287.61
2023-05-02T10:14:39.746Z,96288.02
2023-05-02T10:17:22.259Z,96291.30
2023-05-02T10:20:04.021Z,96287.62
2023-05-02T10:22:34.619Z,96288.73
2023-05-02T10:25:04.109Z,96289.75
2023-05-02T10:27:33.378Z,96291.23
2023-05-02T10:30:04.609Z,96291.11
2023-05-02T10:32:37.957Z,96289.31
2023-05-02T10:35:08.348Z,96291.02
2023-05-02T10:37:38.607Z,96285.84
2023-05-02T10:40:11.554Z,96293.11
2023-05-02T10:42:43.699Z,96296.92
2023-05-02T10:45:31.957Z,96297.25
2023-05-02T10:48:23.460Z,96297.67
2023-05-02T10:50:54.442Z,96296.47
2023-05-02T10:53:26.905Z,96298.24
2023-05-02T10:56:09.237Z,96292.45
2023-05-02T10:58:37.482Z,96296.01
2023-05-02T11:01:38.135Z,96294.39
2023-05-02T11:04:11.211Z,96297.55
2023-05-02T11:07:02.842Z,96295.50
2023-05-02T11:09:33.056Z,96296.88
2023-05-02T11:12:02.313Z,96296.34
2023-05-02T11:14:39.223Z,96295.98
2023-05-02T11:17:08.769Z,96298.13
2023-05-02T11:19:45.704Z,96296.62
2023-05-02T11:22:20.595Z,96299.23
2023-05-02T11:24:49.657Z,96294.83
2023-05-02T11:27:30.125Z,96298.25
2023-05-02T11:29:59.987Z,96298.23
2023-05-02T11:32:46.804Z,96303.09
2023-05-02T11:35:31.329Z,96304.00
2023-05-02T11:38:04.783Z,96306.89
2023-05-02T11:40:33.103Z,96305.42
2023-05-02T11:43:01.532Z,96303.08
2023-05-02T11:45:36.291Z,96303.65
2023-05-02T11:48:08.371Z,96296.16
2023-05-02T11:50:49.771Z,96294.84
2023-05-02T11:53:24.458Z,96289.84
2023-05-02T11:55:58.056Z,96294.16
2023-05-02T11:58:30.221Z,96303.05
2023-05-02T12:00:59.402Z,96302.88
2023-05-02T12:03:32.848Z,96300.83
2023-05-02T12:06:16.375Z,96305.93
2023-05-02T12:08:45.514Z,96300.67
2023-05-02T12:11:18.362Z,96301.98
2023-05-02T12:13:48.467Z,96302.17
2023-05-02T12:16:18.096Z,96298.41
2023-05-02T12:18:47.645Z,96298.22
2023-05-02T12:21:16.031Z,96302.16
2023-05-02T12:23:44.302Z,96302.62
2023-05-02T12:26:21.385Z,96298.75
2023-05-02T12:28:54.926Z,96300.94
2023-05-02T12:31:23.908Z,96304.49
2023-05-02T12:33:57.356Z,96309.80
2023-05-02T12:36:25.588Z,96311.78
2023-05-02T12:38:57.331Z,96318.41
2023-05-02T12:41:37.605Z,96316.47
2023-05-02T12:44:07.467Z,96315.30
2023-05-02T12:46:36.617Z,96316.41
2023-05-02T12:49:12.491Z,96318.61
2023-05-02T12:51:41.814Z,96317.68
2023-05-02T12:54:20.979Z,96320.68
2023-05-02T12:56:52.287Z,96322.10
2023-05-02T12:59:27.867Z,96322.23
2023-05-02T13:01:55.926Z,96321.75
2023-05-02T13:04:41.356Z,96326.87
2023-05-02T13:07:09.449Z,96330.83
2023-05-02T13:09:37.575Z,96326.02
2023-05-02T13:12:06.191Z,96328.17
2023-05-02T13:14:34.262Z,96327.33
2023-05-02T13:17:02.366Z,96327.26
2023-05-02T13:19:31.551Z,96327.45
2023-05-02T13:21:59.682Z,96329.09
2023-05-02T13:24:27.717Z,96334.05
2023-05-02T13:26:56.262Z,96333.02
2023-05-02T13:29:24.288Z,96334.08
2023-05-02T13:31:52.190Z,96332.78
2023-05-02T13:34:20.178Z,96334.48
2023-05-02T13:36:48.200Z,96330.98
2023-05-02T13:39:16.382Z,96332.02
2023-05-02T13:41:44.446Z,96327.53
2023-05-02T13:44:12.665Z,96334.23
2023-05-02T13:46:40.943Z,96329.79
2023-05-02T13:49:09.068Z,96332.55
2023-05-02T13:51:37.061Z,96335.67
2023-05-02T13:54:05.076Z,96341.33
2023-05-02T13:56:33.079Z,96346.02
2023-05-02T13:59:01.054Z,96350.83
2023-05-02T14:01:29.114Z,96357.60
2023-05-02T14:03:57.327Z,96363.56
2023-05-02T14:06:26.617Z,96370.45
2023-05-02T14:08:54.663Z,96382.45
2023-05-02T14:11:22.754Z,96396.56
2023-05-02T14:13:50.675Z,96410.27
2023-05-02T14:16:18.755Z,96414.90
2023-05-02T14:18:46.778Z,96417.71
2023-05-02T14:21:14.784Z,96425.89
2023-05-02T14:23:42.770Z,96423.02
2023-05-02T14:26:10.728Z,96418.46
2023-05-02T14:28:40.424Z,96418.27
2023-05-02T14:31:08.630Z,96424.02
2023-05-02T14:33:36.584Z,96438.42
2023-05-02T14:36:09.731Z,96434.98
2023-05-02T14:38:49.169Z,96439.23
2023-05-02T14:41:21.656Z,96442.15
2023-05-02T14:43:52.571Z,96443.13
2023-05-02T14:46:20.524Z,96437.98
2023-05-02T14:48:48.500Z,96434.59
2023-05-02T14:51:16.696Z,96422.64
2023-05-02T14:53:45.183Z,96410.37
2023-05-02T14:56:15.997Z,96411.73
2023-05-02T14:58:44.272Z,96419.02
2023-05-02T15:01:17.422Z,96422.09
2023-05-02T15:04:05.049Z,96422.61
2023-05-02T15:06:36.010Z,96423.86
2023-05-02T15:09:05.139Z,96429.00
2023-05-02T15:11:33.186Z,96423.94
2023-05-02T15:17:47.742Z,96415.37
2023-05-02T15:20:14.382Z,96414.70
2023-05-02T15:22:41.061Z,96419.98
2023-05-02T15:25:08.214Z,96423.94
2023-05-02T15:27:34.844Z,96419.19
2023-05-02T15:30:05.948Z,96424.73
2023-05-02T15:32:32.840Z,96427.73
2023-05-02T15:34:59.458Z,96427.80
2023-05-02T15:37:26.040Z,96433.63
2023-05-02T15:39:52.621Z,96430.52
2023-05-02T15:42:19.183Z,96432.52
2023-05-02T15:44:45.761Z,96433.16
2023-05-02T15:47:13.028Z,96439.02
2023-05-02T15:49:40.514Z,96444.02
2023-05-02T15:52:07.079Z,96448.59
2023-05-02T15:54:33.803Z,96455.55
2023-05-02T15:57:01.950Z,96457.30
2023-05-02T15:59:28.633Z,96461.48
2023-05-02T16:01:55.584Z,96466.27
2023-05-02T16:04:22.239Z,96468.11
2023-05-02T16:06:48.861Z,96470.27
2023-05-02T16:09:15.488Z,96473.09
2023-05-02T16:11:42.063Z,96473.61
2023-05-02T16:14:08.706Z,96476.07
2023-05-02T16:16:35.626Z,96479.71
2023-05-02T16:19:02.349Z,96486.80
2023-05-02T16:21:28.895Z,96488.30
2023-05-02T16:23:55.536Z,96496.30
2023-05-02T16:26:22.838Z,96497.29
2023-05-02T16:28:52.224Z,96500.52
2023-05-02T16:31:19.045Z,96498.73
2023-05-02T16:33:46.047Z,96509.89
2023-05-02T16:36:14.048Z,96512.67
2023-05-02T16:38:40.791Z,96519.20
2023-05-02T16:41:07.574Z,96527.55
2023-05-02T16:43:34.423Z,96533.89
2023-05-02T16:46:02.663Z,96534.40
2023-05-02T16:48:29.447Z,96542.13
2023-05-02T16:50:56.466Z,96548.90
2023-05-02T16:53:24.322Z,96563.45
2023-05-02T16:55:50.977Z,96566.57
2023-05-02T16:58:17.869Z,96568.04
2023-05-02T17:00:44.782Z,96572.71
2023-05-02T17:03:11.685Z,96581.80
2023-05-02T17:05:42.093Z,96579.96
2023-05-02T17:08:09.249Z,96581.86
2023-05-02T17:10:37.073Z,96578.91
2023-05-02T17:13:03.724Z,96584.05
2023-05-02T17:15:30.986Z,96589.05
2023-05-02T17:17:57.562Z,96589.91
2023-05-02T17:20:24.328Z,96594.02
2023-05-02T17:22:51.995Z,96596.13
2023-05-02T17:25:18.709Z,96608.20
2023-05-02T17:27:45.271Z,96612.53
2023-05-02T17:30:13.168Z,96619.79
2023-05-02T17:32:39.935Z,96622.08
2023-05-02T17:35:06.899Z,96623.94
2023-05-02T17:37:33.538Z,96628.88
2023-05-02T17:40:04.977Z,96634.56
2023-05-02T17:42:31.770Z,96636.61
2023-05-02T17:44:58.333Z,96638.57
2023-05-02T17:47:25.522Z,96644.61
2023-05-02T17:49:53.471Z,96645.77
2023-05-02T17:52:21.753Z,96651.45
2023-05-02T17:54:54.536Z,96651.63
2023-05-02T17:57:21.363Z,96656.02
2023-05-02T17:59:50.049Z,96654.80
2023-05-02T18:02:17.167Z,96657.84
2023-05-02T18:04:45.392Z,96663.45
2023-05-02T18:07:12.096Z,96664.86
2023-05-02T18:09:38.689Z,96670.55
2023-05-02T18:12:05.553Z,96672.29
2023-05-02T18:14:32.273Z,96674.98
2023-05-02T18:16:58.866Z,96677.46
2023-05-02T18:19:25.551Z,96686.14
2023-05-02T18:21:52.533Z,96685.27
2023-05-02T18:24:24.120Z,96687.79
2023-05-02T18:26:50.896Z,96689.08
2023-05-02T18:29:18.328Z,96689.13
2023-05-02T18:31:51.674Z,96691.55
2023-05-02T18:34:18.670Z,96691.33
2023-05-02T18:36:48.238Z,96687.79
2023-05-02T18:39:15.498Z,96683.92
2023-05-02T18:41:42.167Z,96680.86
2023-05-02T18:44:10.764Z,96680.69
2023-05-02T18:46:47.802Z,96679.20
2023-05-02T18:49:14.690Z,96673.15
2023-05-02T18:51:41.465Z,96669.77
2023-05-02T18:54:08.077Z,96665.05
2023-05-02T18:56:34.831Z,96663.24
2023-05-02T18:59:01.399Z,96654.97
2023-05-02T19:01:27.999Z,96657.28
2023-05-02T19:03:54.831Z,96655.27
2023-05-02T19:06:21.704Z,96647.42
2023-05-02T19:08:48.596Z,96641.97
2023-05-02T19:11:15.251Z,96639.71
2023-05-02T19:13:41.891Z,96639.02
2023-05-02T19:16:13.092Z,96637.29
2023-05-02T19:18:40.161Z,96635.98
2023-05-02T19:21:11.629Z,96637.17
2023-05-02T19:23:44.007Z,96637.86
2023-05-02T19:26:13.904Z,96637.02
2023-05-02T19:28:41.110Z,96635.89
2023-05-02T19:31:12.243Z,96639.58
2023-05-02T19:33:39.654Z,96640.77
2023-05-02T19:36:06.979Z,96645.94
2023-05-02T19:38:34.725Z,96649.25
2023-05-02T19:41:02.459Z,96655.27
2023-05-02T19:43:30.676Z,96660.45
2023-05-02T19:45:58.201Z,96665.04
2023-05-02T19:48:24.909Z,96664.92
2023-05-02T19:50:51.549Z,96665.04
2023-05-02T19:53:18.311Z,96663.90
2023-05-02T19:55:44.970Z,96666.76
2023-05-02T19:58:11.743Z,96667.56
2023-05-02T20:00:41.066Z,96671.52
2023-05-02T20:03:08.097Z,96677.34
2023-05-02T20:05:35.780Z,96679.58
2023-05-02T20:08:02.444Z,96680.83
2023-05-02T20:10:29.203Z,96684.10
2023-05-02T20:12:55.850Z,96684.35
2023-05-02T20:15:22.619Z,96685.72
2023-05-02T20:17:49.389Z,96686.98
2023-05-02T20:20:16.076Z,96683.63
2023-05-02T20:22:43.850Z,96691.93
2023-05-02T20:25:11.360Z,96692.09
2023-05-02T20:27:38.213Z,96695.37
2023-05-02T20:30:06.912Z,96698.14
2023-05-02T20:32:33.665Z,96699.90
2023-05-02T20:35:00.357Z,96697.65
2023-05-02T20:37:27.761Z,96701.35
2023-05-02T20:39:54.758Z,96698.92
2023-05-02T20:42:23.926Z,96704.13
2023-05-02T20:44:56.311Z,96706.71
2023-05-02T20:47:27.669Z,96705.96
2023-05-02T20:49:54.813Z,96708.15
2023-05-02T20:52:21.498Z,96710.46
2023-05-02T20:54:48.872Z,96711.55
2023-05-02T20:57:15.854Z,96716.79
2023-05-02T20:59:43.655Z,96715.98
2023-05-02T21:02:10.839Z,96720.42
2023-05-02T21:04:37.450Z,96724.07
2023-05-02T21:07:04.500Z,96725.30
2023-05-02T21:09:31.854Z,96726.66
2023-05-02T21:11:58.435Z,96730.11
2023-05-02T21:14:25.816Z,96729.11
2023-05-02T21:16:52.763Z,96730.89
2023-05-02T21:19:22.430Z,96730.33
2023-05-02T21:21:49.079Z,96733.56
2023-05-02T21:24:15.706Z,96736.96
2023-05-02T21:26:42.327Z,96743.08
2023-05-02T21:29:10.261Z,96745.48
2023-05-02T21:31:38.783Z,96742.47
2023-05-02T21:34:05.547Z,96742.98
2023-05-02T21:36:32.293Z,96744.85
2023-05-02T21:38:59.930Z,96747.11
2023-05-02T21:41:26.501Z,96754.44
2023-05-02T21:43:53.733Z,96761.80
2023-05-02T21:46:22.871Z,96761.70
2023-05-02T21:48:49.554Z,96763.98
2023-05-02T21:51:16.179Z,96761.56
2023-05-02T21:53:42.961Z,96761.77
2023-05-02T21:56:10.138Z,96761.52
2023-05-02T21:58:36.686Z,96760.24
2023-05-02T22:01:03.810Z,96761.51
2023-05-02T22:03:33.073Z,96761.20
2023-05-02T22:06:05.124Z,96761.10
2023-05-02T22:08:32.130Z,96762.57
2023-05-02T22:11:08.717Z,96758.31
2023-05-02T22:13:36.057Z,96762.55
2023-05-02T22:16:02.888Z,96766.11
2023-05-02T22:18:29.719Z,96769.70
2023-05-02T22:20:57.921Z,96768.22
2023-05-02T22:23:24.676Z,96769.45
2023-05-02T22:25:51.232Z,96768.52
2023-05-02T22:28:17.780Z,96774.73
2023-05-02T22:30:44.517Z,96773.75
2023-05-02T22:33:11.609Z,96774.78
2023-05-02T22:35:38.318Z,96776.66
2023-05-02T22:38:08.216Z,96778.84
2023-05-02T22:40:35.104Z,96780.39
2023-05-02T22:43:02.332Z,96784.59
2023-05-02T22:45:28.950Z,96784.85
2023-05-02T22:47:55.688Z,96789.89
2023-05-02T22:50:22.565Z,96790.02
2023-05-02T22:52:49.136Z,96789.41
2023-05-02T22:55:15.820Z,96792.84
2023-05-02T22:57:42.808Z,96795.94
2023-05-02T23:00:10.549Z,96797.95
2023-05-02T23:02:37.670Z,96798.16
2023-05-02T23:05:05.987Z,96795.39
2023-05-02T23:07:32.648Z,96800.29
2023-05-02T23:09:59.287Z,96803.17
2023-05-02T23:12:26.520Z,96802.10
2023-05-02T23:14:53.082Z,96797.71
2023-05-02T23:17:20.112Z,96798.27
2023-05-02T23:19:46.757Z,96799.02
2023-05-02T23:22:13.461Z,96801.05
2023-05-02T23:24:40.582Z,96801.04
2023-05-02T23:27:07.223Z,96798.87
2023-05-02T23:29:33.800Z,96801.64
2023-05-02T23:32:00.931Z,96798.52
2023-05-02T23:34:41.766Z,96798.29
2023-05-02T23:37:08.783Z,96800.27
2023-05-02T23:39:35.688Z,96799.10
2023-05-02T23:42:03.080Z,96795.83
2023-05-02T23:44:30.631Z,96794.93
2023-05-02T23:47:01.015Z,96796.39
2023-05-02T23:49:27.661Z,96794.48
2023-05-02T23:51:54.317Z,96795.47
2023-05-02T23:54:21.055Z,96792.58
2023-05-02T23:56:48.038Z,96795.39
2023-05-02T23:59:14.653Z,96794.14
